Ana Sayfa
METAR-TAF:

METAR-TAF

Havaalanları :

Xi'an Xianyang Uluslararası Havalimanı

Xi'an, Çin

Enlem: 34-26N, Boylam: 108-45E, yükseklik: 479 m

Güncel hava durumu gözlemi

Rapor saat 12:00 UTC de 53 dakika önce yapıldı.
Rüzgar güney/güneybatıdan 4 kt
Sıcaklık 22°C
Nem 83%
Basınç 1009 hPa
Görüş mesafesi 10 km veya daha fazla
1500 m altında bulut yok ve kümülonimbus yok

METAR: ZLXY 161200Z 20002MPS CAVOK 22/19 Q1009 NOSIG

Saat: 20:53 (12:53 UTC)

Tahmin

Rapor saat 09:10 UTC de 3 saat ve 43 dakika önce yapıldı.
Ayın 16'si saat 12 UTC'den ayın 17'si saat 12 UTC'ye kadar geçerli Tahmin
Rüzgar batı/güneybatıdan 6 kt
Görüş mesafesi: 3000 m
Pus,

TAF: ZLXY 160910Z 1612/1712 24003MPS 3000 BR NSC TX32/1707Z TN21/1622Z

4.000'den fazla havaalanı için hava durumu gözlemleri ve tahminleri (METAR ve TAF raporları).

Kullanılabilir istasyonlar harita üzerinde sarı ve kırmızı noktalarla gösterilir.

İstasyonun adını görmek için fareyi noktanın üzerinde gezdirin.

Sonrasında hava gözlem ve tahminlerini görmek için tıklayın.

Haritayı değiştirmek için: yaklaştırmak için siyah artı işaretli yeşil düğmeye ve uzaklaştırmak için de eksi işaretli düğmeye hızla tıklayın; bitişik haritalar için yeşil okları kullanın.


METAR-TAF: